Time;durP1;ratioP1;P1;durP2;ratioP2;P2;SDS_P1;SDS_P2;PMS_P1;PMS_P2;Temp;Humidity;BMP_temperature;BMP_pressure;BME280_temperature;BME280_humidity;BME280_pressure;Samples;Min_cycle;Max_cycle;Signal;HPM_P1;HPM_P2
2022/10/23 00:00:44;;;;;;;2.63;2.17;;;;;;;;;;5111784;28;20213;-30
2022/10/23 00:03:11;;;;;;;5.43;2.60;;;;;;;;;;5106170;28;20203;-31
2022/10/23 00:05:40;;;;;;;3.47;1.90;;;;;;;;;;5100527;28;20291;-29
2022/10/23 00:08:08;;;;;;;2.53;2.17;;;;;;;;;;5092649;28;20216;-31
2022/10/23 00:10:35;;;;;;;4.63;1.63;;;;;;;;;;5092609;28;20294;-35
2022/10/23 00:13:02;;;;;;;6.13;1.90;;;;;;;;;;5093011;28;20231;-32
2022/10/23 00:15:31;;;;;;;2.20;1.60;;;;;;;;;;5104085;28;20227;-33
2022/10/23 00:17:58;;;;;;;4.90;2.03;;;;;;;;;;5106198;28;20205;-32
2022/10/23 00:20:25;;;;;;;2.67;1.70;;;;;;;;;;5106265;28;20232;-29
2022/10/23 00:22:52;;;;;;;2.33;1.60;;;;;;;;;;5112438;28;20204;-33
2022/10/23 00:25:20;;;;;;;2.17;1.70;;;;;;;;;;5111126;28;20212;-28
2022/10/23 00:27:47;;;;;;;6.33;2.10;;;;;;;;;;5094380;28;20714;-29
2022/10/23 00:30:14;;;;;;;3.87;1.80;;;;;;;;;;5099189;28;20242;-34
2022/10/23 00:32:43;;;;;;;1.67;1.50;;;;;;;;;;5101959;28;20228;-35
2022/10/23 00:35:10;;;;;;;3.60;1.47;;;;;;;;;;5099017;28;20231;-31
2022/10/23 00:37:37;;;;;;;1.80;1.30;;;;;;;;;;5107025;28;20204;-30
2022/10/23 00:40:04;;;;;;;2.50;1.63;;;;;;;;;;5111164;28;20213;-34
2022/10/23 00:42:31;;;;;;;3.17;1.70;;;;;;;;;;5098533;28;20215;-32
2022/10/23 00:45:20;;;;;;;4.50;1.83;;;;;;;;;;5099775;28;20207;-34
2022/10/23 00:47:48;;;;;;;6.83;1.83;;;;;;;;;;5107218;28;20279;-32
2022/10/23 00:50:16;;;;;;;4.43;1.47;;;;;;;;;;5103884;28;20230;-28
2022/10/23 00:52:45;;;;;;;3.37;1.93;;;;;;;;;;5108661;28;20197;-32
2022/10/23 00:55:13;;;;;;;2.37;1.70;;;;;;;;;;5091462;28;20244;-34
2022/10/23 00:57:42;;;;;;;4.23;1.77;;;;;;;;;;5095513;28;20209;-32
2022/10/23 01:00:12;;;;;;;5.03;1.40;;;;;;;;;;5098193;28;20220;-30
2022/10/23 01:02:39;;;;;;;5.10;1.87;;;;;;;;;;5105038;28;20200;-34
2022/10/23 01:05:08;;;;;;;1.80;1.67;;;;;;;;;;5101366;28;20291;-35
2022/10/23 01:07:39;;;;;;;5.60;1.67;;;;;;;;;;5100330;28;20204;-31
2022/10/23 01:10:08;;;;;;;2.97;1.43;;;;;;;;;;5091601;28;20225;-31
2022/10/23 01:12:39;;;;;;;2.40;1.63;;;;;;;;;;5090025;28;20207;-32
2022/10/23 01:15:08;;;;;;;1.97;1.60;;;;;;;;;;5092610;28;20213;-29
2022/10/23 01:17:37;;;;;;;6.27;1.77;;;;;;;;;;5101728;28;20200;-30
2022/10/23 01:20:12;;;;;;;1.70;1.60;;;;;;;;;;5093626;28;20228;-32
2022/10/23 01:22:49;;;;;;;4.37;1.90;;;;;;;;;;5099583;28;20200;-30
2022/10/23 01:25:24;;;;;;;2.80;1.60;;;;;;;;;;5092832;28;20205;-28
2022/10/23 01:27:54;;;;;;;7.23;1.67;;;;;;;;;;5093860;28;20208;-31
2022/10/23 01:30:21;;;;;;;2.53;1.63;;;;;;;;;;5103072;28;20236;-31
2022/10/23 01:32:51;;;;;;;2.13;1.63;;;;;;;;;;5098624;28;20202;-33
2022/10/23 01:35:21;;;;;;;5.33;1.70;;;;;;;;;;5107143;28;20331;-31
2022/10/23 01:37:50;;;;;;;2.83;1.60;;;;;;;;;;5097018;28;20240;-30
2022/10/23 01:40:21;;;;;;;1.60;1.50;;;;;;;;;;5112950;28;20223;-30
2022/10/23 01:42:50;;;;;;;1.67;1.57;;;;;;;;;;5104626;28;20210;-29
2022/10/23 01:45:21;;;;;;;1.60;1.50;;;;;;;;;;5096087;28;20207;-32
2022/10/23 01:47:50;;;;;;;4.17;1.80;;;;;;;;;;5100728;28;20294;-33
2022/10/23 01:50:18;;;;;;;4.07;1.37;;;;;;;;;;5099520;28;20294;-35
2022/10/23 01:52:45;;;;;;;2.17;1.50;;;;;;;;;;5093904;28;20203;-32
2022/10/23 01:55:12;;;;;;;2.20;1.60;;;;;;;;;;5110611;28;20217;-33
2022/10/23 01:57:40;;;;;;;2.13;1.27;;;;;;;;;;5096563;28;20206;-33
2022/10/23 02:00:09;;;;;;;2.73;1.50;;;;;;;;;;5105018;28;20327;-30
2022/10/23 02:02:38;;;;;;;4.07;1.40;;;;;;;;;;5110987;28;20307;-32
2022/10/23 02:05:09;;;;;;;1.57;1.47;;;;;;;;;;5104575;28;20214;-33
2022/10/23 02:07:36;;;;;;;3.67;1.77;;;;;;;;;;5093973;28;20242;-33
2022/10/23 02:10:04;;;;;;;2.57;1.57;;;;;;;;;;5102339;28;20230;-32
2022/10/23 02:12:36;;;;;;;2.67;1.70;;;;;;;;;;5094754;28;20210;-29
2022/10/23 02:15:06;;;;;;;2.10;1.40;;;;;;;;;;5102388;28;20226;-32
2022/10/23 02:17:37;;;;;;;5.17;1.60;;;;;;;;;;5102111;28;20205;-31
2022/10/23 02:20:13;;;;;;;4.10;1.40;;;;;;;;;;5088463;28;20307;-30
2022/10/23 02:22:42;;;;;;;3.20;1.53;;;;;;;;;;5109284;28;20979;-32
2022/10/23 02:25:12;;;;;;;4.17;1.63;;;;;;;;;;5110823;28;20203;-32
2022/10/23 02:27:43;;;;;;;2.67;1.60;;;;;;;;;;5097017;28;20201;-34
2022/10/23 02:30:12;;;;;;;3.13;1.90;;;;;;;;;;5100030;28;20239;-33
2022/10/23 02:32:40;;;;;;;1.30;1.20;;;;;;;;;;5098470;28;20193;-32
2022/10/23 02:35:09;;;;;;;3.30;1.60;;;;;;;;;;5092121;28;20203;-30
2022/10/23 02:37:37;;;;;;;2.40;1.20;;;;;;;;;;5097521;28;20292;-31
2022/10/23 02:40:04;;;;;;;9.10;1.73;;;;;;;;;;5112260;28;20232;-30
2022/10/23 02:42:35;;;;;;;7.20;2.00;;;;;;;;;;5113728;28;20214;-31
2022/10/23 02:45:05;;;;;;;4.30;1.50;;;;;;;;;;5106095;28;20226;-35
2022/10/23 02:47:44;;;;;;;2.70;1.67;;;;;;;;;;5094764;28;20197;-30
2022/10/23 02:50:18;;;;;;;2.87;1.63;;;;;;;;;;5100850;28;20265;-32
2022/10/23 02:52:49;;;;;;;3.07;1.20;;;;;;;;;;5105242;28;20200;-33
2022/10/23 02:55:22;;;;;;;4.83;1.40;;;;;;;;;;5104141;28;20224;-31
2022/10/23 02:57:51;;;;;;;1.50;1.03;;;;;;;;;;5096753;28;20200;-32
2022/10/23 03:00:20;;;;;;;13.07;1.83;;;;;;;;;;5099912;28;20316;-33
2022/10/23 03:02:50;;;;;;;3.03;1.27;;;;;;;;;;5100863;28;20203;-32
2022/10/23 03:05:21;;;;;;;4.63;1.50;;;;;;;;;;5102621;28;20214;-31
2022/10/23 03:07:48;;;;;;;2.17;1.60;;;;;;;;;;5105335;28;20189;-32
2022/10/23 03:10:15;;;;;;;3.20;1.10;;;;;;;;;;5095657;28;20228;-35
2022/10/23 03:12:43;;;;;;;4.17;1.40;;;;;;;;;;5096929;28;20231;-30
2022/10/23 03:15:11;;;;;;;1.60;1.50;;;;;;;;;;5100188;28;20284;-30
2022/10/23 03:17:38;;;;;;;2.57;1.30;;;;;;;;;;5101971;28;20208;-33
2022/10/23 03:20:06;;;;;;;5.53;1.57;;;;;;;;;;5105396;28;20320;-32
2022/10/23 03:22:35;;;;;;;2.63;1.10;;;;;;;;;;5102859;28;20208;-34
2022/10/23 03:25:02;;;;;;;1.40;1.30;;;;;;;;;;5112405;28;20208;-32
2022/10/23 03:27:29;;;;;;;2.37;1.63;;;;;;;;;;5102606;28;20288;-30
2022/10/23 03:29:56;;;;;;;3.13;1.30;;;;;;;;;;5110467;28;20242;-34
2022/10/23 03:32:23;;;;;;;4.43;1.30;;;;;;;;;;5117547;28;20264;-32
2022/10/23 03:34:50;;;;;;;1.80;1.50;;;;;;;;;;5111050;28;20212;-32
2022/10/23 03:37:18;;;;;;;2.57;1.60;;;;;;;;;;5104884;28;20263;-30
2022/10/23 03:39:46;;;;;;;4.10;1.60;;;;;;;;;;5115752;28;20200;-32
2022/10/23 03:42:13;;;;;;;3.73;1.50;;;;;;;;;;5108855;28;20204;-32
2022/10/23 03:44:40;;;;;;;2.97;1.30;;;;;;;;;;5110101;28;20290;-29
2022/10/23 03:47:08;;;;;;;2.40;1.57;;;;;;;;;;5095849;28;20203;-32
2022/10/23 03:49:36;;;;;;;1.70;1.60;;;;;;;;;;5099542;28;20255;-33
2022/10/23 03:52:03;;;;;;;2.30;1.20;;;;;;;;;;5096637;28;20212;-30
2022/10/23 03:54:31;;;;;;;6.27;1.83;;;;;;;;;;5113507;28;20196;-30
2022/10/23 03:56:59;;;;;;;2.43;1.43;;;;;;;;;;5106596;28;20227;-34
2022/10/23 03:59:26;;;;;;;1.47;1.37;;;;;;;;;;5098378;28;20209;-33
2022/10/23 04:01:53;;;;;;;4.03;1.77;;;;;;;;;;5101575;28;20208;-30
2022/10/23 04:04:21;;;;;;;1.83;1.60;;;;;;;;;;5105484;28;20625;-30
2022/10/23 04:06:48;;;;;;;4.37;1.30;;;;;;;;;;5098810;28;20205;-34
2022/10/23 04:09:15;;;;;;;4.23;1.50;;;;;;;;;;5111401;28;20203;-32
2022/10/23 04:11:42;;;;;;;3.13;1.43;;;;;;;;;;5110438;28;20230;-31
2022/10/23 04:14:12;;;;;;;1.30;1.20;;;;;;;;;;5114314;28;20214;-32
2022/10/23 04:16:39;;;;;;;2.83;1.40;;;;;;;;;;5104949;28;20208;-32
2022/10/23 04:19:06;;;;;;;8.23;1.83;;;;;;;;;;5102418;28;20233;-33
2022/10/23 04:21:33;;;;;;;7.77;1.70;;;;;;;;;;5105507;28;20227;-33
2022/10/23 04:24:01;;;;;;;2.47;1.07;;;;;;;;;;5110522;28;20208;-31
2022/10/23 04:26:28;;;;;;;4.37;1.33;;;;;;;;;;5103125;28;20266;-29
2022/10/23 04:28:55;;;;;;;1.50;1.40;;;;;;;;;;5096912;28;20211;-35
2022/10/23 04:31:23;;;;;;;1.60;1.40;;;;;;;;;;5103140;28;20220;-33
2022/10/23 04:33:50;;;;;;;1.20;1.10;;;;;;;;;;5108083;28;20215;-32
2022/10/23 04:36:18;;;;;;;2.17;1.50;;;;;;;;;;5096488;28;20225;-35
2022/10/23 04:38:45;;;;;;;8.87;1.73;;;;;;;;;;5108315;28;20204;-31
2022/10/23 04:41:12;;;;;;;1.63;1.37;;;;;;;;;;5104160;28;20220;-31
2022/10/23 04:43:39;;;;;;;2.80;1.37;;;;;;;;;;5103933;28;20214;-32
2022/10/23 04:46:06;;;;;;;1.30;1.17;;;;;;;;;;5108526;28;20695;-34
2022/10/23 04:48:35;;;;;;;2.70;2.13;;;;;;;;;;5098287;28;20242;-31
2022/10/23 04:51:04;;;;;;;1.67;1.53;;;;;;;;;;5095770;28;20220;-30
2022/10/23 04:53:31;;;;;;;1.67;1.57;;;;;;;;;;5109501;28;20209;-31
2022/10/23 04:55:58;;;;;;;1.33;1.23;;;;;;;;;;5103500;28;20263;-32
2022/10/23 04:58:26;;;;;;;1.40;1.30;;;;;;;;;;5104339;28;20210;-33
2022/10/23 05:00:53;;;;;;;1.60;1.50;;;;;;;;;;5102777;28;20251;-29
2022/10/23 05:03:22;;;;;;;2.23;1.20;;;;;;;;;;5095189;28;20200;-30
2022/10/23 05:05:52;;;;;;;4.37;1.50;;;;;;;;;;5103729;28;20207;-29
2022/10/23 05:08:20;;;;;;;9.87;2.20;;;;;;;;;;5114149;28;20215;-34
2022/10/23 05:10:48;;;;;;;4.47;1.73;;;;;;;;;;5115070;28;20228;-31
2022/10/23 05:13:15;;;;;;;4.60;1.77;;;;;;;;;;5107148;28;20208;-32
2022/10/23 05:15:42;;;;;;;3.77;1.50;;;;;;;;;;5105197;28;20204;-34
2022/10/23 05:18:13;;;;;;;2.20;1.50;;;;;;;;;;5112893;28;20210;-30
2022/10/23 05:20:40;;;;;;;1.97;1.67;;;;;;;;;;5102098;28;20228;-33
2022/10/23 05:23:11;;;;;;;2.07;1.20;;;;;;;;;;5114269;28;20208;-32
2022/10/23 05:25:39;;;;;;;5.17;1.50;;;;;;;;;;5109887;28;20205;-31
2022/10/23 05:28:06;;;;;;;2.33;1.50;;;;;;;;;;5107882;28;20591;-30
2022/10/23 05:30:33;;;;;;;3.67;1.50;;;;;;;;;;5351828;22;20312;-34
2022/10/23 05:33:01;;;;;;;2.93;2.03;;;;;;;;;;5112711;28;20288;-34
2022/10/23 05:35:28;;;;;;;1.40;1.30;;;;;;;;;;5103489;28;20210;-32
2022/10/23 05:37:56;;;;;;;6.73;1.87;;;;;;;;;;5115839;28;20215;-34
2022/10/23 05:40:25;;;;;;;3.37;1.90;;;;;;;;;;5119939;27;20261;-35
2022/10/23 05:42:52;;;;;;;2.77;1.57;;;;;;;;;;5136102;27;20282;-33
2022/10/23 05:45:19;;;;;;;7.37;1.60;;;;;;;;;;5136134;27;20207;-30
2022/10/23 05:47:47;;;;;;;7.03;1.80;;;;;;;;;;5134086;27;20199;-35
2022/10/23 05:50:15;;;;;;;6.67;1.70;;;;;;;;;;5124279;27;20287;-35
2022/10/23 05:52:42;;;;;;;3.27;1.43;;;;;;;;;;5132864;27;20308;-32
2022/10/23 05:55:09;;;;;;;4.03;2.30;;;;;;;;;;5148918;27;20202;-31
2022/10/23 05:57:38;;;;;;;7.27;2.17;;;;;;;;;;5142556;27;20216;-31
2022/10/23 06:00:05;;;;;;;3.77;2.17;;;;;;;;;;5127552;27;20222;-29
2022/10/23 06:02:33;;;;;;;2.83;2.30;;;;;;;;;;5134601;27;20231;-31
2022/10/23 06:05:00;;;;;;;3.10;1.93;;;;;;;;;;5125905;27;20233;-33
2022/10/23 06:12:40;;;;;;;3.20;1.90;;;;;;;;;;5799253;22;20266;-35
2022/10/23 06:15:08;;;;;;;2.20;2.00;;;;;;;;;;5105812;28;20201;-33
2022/10/23 06:22:47;;;;;;;1.80;1.70;;;;;;;;;;5458114;22;20234;-34
2022/10/23 06:25:14;;;;;;;3.17;1.70;;;;;;;;;;5059590;28;20377;-32
2022/10/23 06:27:42;;;;;;;5.20;2.73;;;;;;;;;;5487931;22;20267;-32
2022/10/23 06:30:11;;;;;;;1.93;1.80;;;;;;;;;;5080621;28;20240;-31
2022/10/23 06:32:38;;;;;;;2.70;1.97;;;;;;;;;;5081415;28;20284;-34
2022/10/23 06:35:06;;;;;;;3.83;1.70;;;;;;;;;;5073354;28;20203;-31
2022/10/23 06:37:34;;;;;;;3.53;2.00;;;;;;;;;;5087854;28;20225;-32
2022/10/23 06:40:03;;;;;;;2.47;2.27;;;;;;;;;;5089605;28;20225;-31
2022/10/23 06:42:30;;;;;;;3.57;2.07;;;;;;;;;;5084211;28;20257;-35
2022/10/23 06:44:59;;;;;;;1.93;1.73;;;;;;;;;;5098224;28;20299;-33
2022/10/23 06:47:26;;;;;;;5.47;2.13;;;;;;;;;;5091252;28;20197;-33
2022/10/23 06:49:54;;;;;;;2.47;1.87;;;;;;;;;;5082893;28;20224;-30
2022/10/23 06:52:21;;;;;;;2.60;2.07;;;;;;;;;;5094514;28;20252;-31
2022/10/23 06:54:48;;;;;;;2.47;2.00;;;;;;;;;;5070382;28;20311;-34
2022/10/23 06:57:15;;;;;;;4.87;2.07;;;;;;;;;;5085195;28;20216;-32
2022/10/23 06:59:42;;;;;;;3.17;1.90;;;;;;;;;;5089740;28;20311;-31
2022/10/23 07:02:11;;;;;;;6.37;2.07;;;;;;;;;;5090025;28;20268;-35
2022/10/23 07:04:40;;;;;;;5.10;2.37;;;;;;;;;;5087854;28;20232;-31
2022/10/23 07:07:07;;;;;;;6.00;2.00;;;;;;;;;;5094844;28;20207;-30
2022/10/23 07:09:36;;;;;;;4.57;2.47;;;;;;;;;;5113989;28;20200;-36
2022/10/23 07:12:03;;;;;;;3.93;1.80;;;;;;;;;;5094320;28;20260;-33
2022/10/23 07:14:31;;;;;;;3.30;2.00;;;;;;;;;;5085351;28;20205;-33
2022/10/23 07:16:58;;;;;;;2.67;1.97;;;;;;;;;;5101025;28;20282;-30
2022/10/23 07:19:26;;;;;;;2.23;2.03;;;;;;;;;;5088268;28;20219;-28
2022/10/23 07:21:53;;;;;;;3.53;2.07;;;;;;;;;;5100633;28;20232;-36
2022/10/23 07:24:21;;;;;;;2.90;2.30;;;;;;;;;;5102448;28;20261;-29
2022/10/23 07:26:48;;;;;;;6.37;2.70;;;;;;;;;;5088485;28;20295;-32
2022/10/23 07:29:15;;;;;;;5.67;2.63;;;;;;;;;;5080138;28;20206;-35
2022/10/23 07:31:42;;;;;;;8.33;2.90;;;;;;;;;;5089578;28;20311;-30
2022/10/23 07:34:10;;;;;;;3.00;2.27;;;;;;;;;;5082317;28;20237;-32
2022/10/23 07:36:39;;;;;;;9.60;2.50;;;;;;;;;;5088484;28;20215;-34
2022/10/23 07:39:06;;;;;;;3.50;2.50;;;;;;;;;;5092877;28;20296;-35
2022/10/23 07:41:33;;;;;;;2.50;2.30;;;;;;;;;;5087801;28;20279;-33
2022/10/23 07:44:00;;;;;;;3.80;2.03;;;;;;;;;;5107632;28;20236;-32
2022/10/23 07:46:27;;;;;;;5.73;2.13;;;;;;;;;;5113912;28;20200;-32
2022/10/23 07:48:54;;;;;;;3.33;2.40;;;;;;;;;;5098102;28;20208;-34
2022/10/23 07:51:22;;;;;;;2.50;2.30;;;;;;;;;;5092398;28;20308;-33
2022/10/23 07:53:50;;;;;;;3.57;2.03;;;;;;;;;;5087858;28;20196;-33
2022/10/23 07:56:18;;;;;;;3.40;2.07;;;;;;;;;;5096741;28;20216;-30
2022/10/23 08:01:24;;;;;;;3.23;2.93;;;;;;;;;;5786090;22;20258;-32
2022/10/23 08:03:51;;;;;;;3.27;2.90;;;;;;;;;;5108621;28;20240;-30
2022/10/23 08:06:18;;;;;;;4.60;2.50;;;;;;;;;;5104911;28;20296;-36
2022/10/23 08:08:45;;;;;;;3.57;2.37;;;;;;;;;;5206374;22;20339;-32
2022/10/23 08:11:15;;;;;;;2.60;2.40;;;;;;;;;;5113946;28;20249;-34
2022/10/23 08:13:48;;;;;;;8.53;2.77;;;;;;;;;;5100459;28;20200;-33
2022/10/23 08:16:15;;;;;;;4.47;2.57;;;;;;;;;;5091814;28;20201;-30
2022/10/23 08:18:44;;;;;;;2.30;2.13;;;;;;;;;;5092847;28;20248;-36
2022/10/23 08:21:11;;;;;;;3.17;2.37;;;;;;;;;;5080414;28;20260;-33
2022/10/23 08:23:39;;;;;;;4.10;2.83;;;;;;;;;;5092060;28;20283;-33
2022/10/23 08:26:07;;;;;;;4.23;2.43;;;;;;;;;;5101552;28;20205;-33
2022/10/23 08:28:39;;;;;;;4.80;2.47;;;;;;;;;;5086289;28;20198;-30
2022/10/23 08:31:08;;;;;;;2.67;2.47;;;;;;;;;;5088300;28;20310;-30
2022/10/23 08:33:35;;;;;;;4.10;2.70;;;;;;;;;;5088161;28;20214;-35
2022/10/23 08:36:02;;;;;;;5.90;3.33;;;;;;;;;;5086476;28;20197;-33
2022/10/23 08:38:29;;;;;;;4.07;2.67;;;;;;;;;;5102782;28;20222;-30
2022/10/23 08:40:56;;;;;;;4.90;2.50;;;;;;;;;;5115808;28;20230;-29
2022/10/23 08:43:29;;;;;;;5.30;3.37;;;;;;;;;;5089952;28;20211;-32
2022/10/23 08:46:00;;;;;;;3.63;2.93;;;;;;;;;;5091376;28;20210;-34
2022/10/23 08:48:31;;;;;;;2.83;2.63;;;;;;;;;;5087965;28;20227;-33
2022/10/23 08:51:00;;;;;;;4.53;2.63;;;;;;;;;;5080496;28;20230;-32
2022/10/23 08:53:29;;;;;;;4.33;2.70;;;;;;;;;;5097690;28;20207;-33
2022/10/23 08:56:00;;;;;;;3.40;2.50;;;;;;;;;;5100005;28;20287;-32
2022/10/23 08:58:30;;;;;;;3.73;2.63;;;;;;;;;;5089666;28;20222;-33
2022/10/23 09:00:59;;;;;;;5.23;2.60;;;;;;;;;;5080204;28;20223;-35
2022/10/23 09:03:27;;;;;;;2.40;2.20;;;;;;;;;;5083577;28;20201;-33
2022/10/23 09:05:58;;;;;;;6.00;2.70;;;;;;;;;;5094551;28;20242;-32
2022/10/23 09:08:31;;;;;;;6.63;3.03;;;;;;;;;;5105192;28;20203;-34
2022/10/23 09:11:06;;;;;;;3.30;2.33;;;;;;;;;;5103172;28;20221;-33
2022/10/23 09:13:40;;;;;;;2.67;2.47;;;;;;;;;;5089981;28;20208;-33
2022/10/23 09:16:13;;;;;;;6.47;2.53;;;;;;;;;;5088426;28;20205;-32
2022/10/23 09:18:41;;;;;;;5.63;3.07;;;;;;;;;;5088451;28;20231;-33
2022/10/23 09:21:09;;;;;;;2.30;2.10;;;;;;;;;;5100370;28;20217;-35
2022/10/23 09:23:36;;;;;;;2.90;2.40;;;;;;;;;;5093524;28;20201;-33
2022/10/23 09:26:08;;;;;;;2.87;2.33;;;;;;;;;;5086113;28;20225;-30
2022/10/23 09:28:38;;;;;;;2.50;2.30;;;;;;;;;;5096249;28;20207;-34
2022/10/23 09:31:10;;;;;;;2.63;2.43;;;;;;;;;;5090858;28;20220;-33
2022/10/23 09:33:38;;;;;;;2.77;2.30;;;;;;;;;;5083471;28;20263;-36
2022/10/23 09:36:07;;;;;;;6.63;2.63;;;;;;;;;;5080236;28;20215;-34
2022/10/23 09:38:35;;;;;;;3.43;2.30;;;;;;;;;;5099319;28;20216;-30
2022/10/23 09:41:04;;;;;;;4.30;2.13;;;;;;;;;;5091129;28;20222;-32
2022/10/23 09:43:31;;;;;;;2.83;2.30;;;;;;;;;;5085935;28;20200;-36
2022/10/23 09:45:59;;;;;;;4.17;2.20;;;;;;;;;;5099372;28;20203;-34
2022/10/23 09:48:28;;;;;;;3.03;2.60;;;;;;;;;;5085102;28;20268;-34
2022/10/23 09:50:56;;;;;;;3.43;1.90;;;;;;;;;;5089065;28;20224;-34
2022/10/23 09:53:30;;;;;;;6.07;2.13;;;;;;;;;;5103109;28;20216;-34
2022/10/23 09:55:58;;;;;;;2.13;1.90;;;;;;;;;;5090937;28;20191;-35
2022/10/23 09:58:28;;;;;;;4.30;1.80;;;;;;;;;;5078510;28;20229;-35
2022/10/23 10:00:55;;;;;;;2.43;2.00;;;;;;;;;;5083869;28;20220;-36
2022/10/23 10:03:23;;;;;;;4.17;2.10;;;;;;;;;;5093854;28;20289;-28
2022/10/23 10:05:56;;;;;;;2.77;2.10;;;;;;;;;;5087731;28;20217;-36
2022/10/23 10:08:25;;;;;;;5.37;2.10;;;;;;;;;;5088215;28;20193;-34
2022/10/23 10:10:54;;;;;;;2.83;2.30;;;;;;;;;;5092035;28;20220;-35
2022/10/23 10:13:30;;;;;;;3.23;1.93;;;;;;;;;;5088251;28;20214;-35
2022/10/23 10:15:59;;;;;;;3.10;2.00;;;;;;;;;;5085981;28;20206;-34
2022/10/23 10:18:29;;;;;;;2.97;1.77;;;;;;;;;;5085862;28;20228;-36
2022/10/23 10:21:05;;;;;;;1.77;1.57;;;;;;;;;;5089492;28;20220;-33
2022/10/23 10:23:35;;;;;;;2.10;1.17;;;;;;;;;;5090465;28;20193;-29
2022/10/23 10:26:05;;;;;;;2.20;1.20;;;;;;;;;;5083545;28;20214;-35
2022/10/23 10:28:39;;;;;;;1.33;1.13;;;;;;;;;;5096086;28;20197;-34
2022/10/23 10:31:11;;;;;;;1.20;1.10;;;;;;;;;;5088986;28;20284;-36
2022/10/23 10:33:41;;;;;;;6.10;1.63;;;;;;;;;;5082283;28;20429;-33
2022/10/23 10:36:13;;;;;;;3.57;1.27;;;;;;;;;;5084303;28;20234;-34
2022/10/23 10:38:45;;;;;;;8.73;1.47;;;;;;;;;;5091761;28;20220;-34
2022/10/23 10:41:37;;;;;;;1.80;1.00;;;;;;;;;;5090673;28;20228;-34
2022/10/23 10:44:15;;;;;;;1.03;1.03;;;;;;;;;;5087449;28;20231;-35
2022/10/23 10:46:45;;;;;;;1.87;1.00;;;;;;;;;;5093040;28;20197;-34
2022/10/23 10:49:17;;;;;;;1.87;1.07;;;;;;;;;;5083543;28;20261;-33
2022/10/23 10:51:48;;;;;;;1.30;1.20;;;;;;;;;;5086356;28;20224;-35
2022/10/23 10:54:20;;;;;;;1.50;1.40;;;;;;;;;;5102780;28;20211;-32
2022/10/23 10:56:48;;;;;;;1.33;1.23;;;;;;;;;;5089963;28;20201;-32
2022/10/23 10:59:19;;;;;;;1.13;1.13;;;;;;;;;;5092375;28;20224;-31
2022/10/23 11:01:50;;;;;;;2.00;1.00;;;;;;;;;;5084306;28;20221;-30
2022/10/23 11:04:22;;;;;;;1.00;1.00;;;;;;;;;;5084465;28;20207;-33
2022/10/23 11:06:52;;;;;;;3.97;1.13;;;;;;;;;;5097633;28;20271;-33
2022/10/23 11:09:21;;;;;;;2.20;1.17;;;;;;;;;;5099758;28;20211;-30
2022/10/23 11:11:48;;;;;;;2.10;1.60;;;;;;;;;;5090422;28;20228;-29
2022/10/23 11:14:17;;;;;;;2.23;1.50;;;;;;;;;;5081803;28;20193;-34
2022/10/23 11:16:46;;;;;;;2.83;1.57;;;;;;;;;;5097268;28;20291;-32
2022/10/23 11:19:18;;;;;;;1.50;1.40;;;;;;;;;;5086101;28;20271;-34
2022/10/23 11:21:47;;;;;;;2.03;1.37;;;;;;;;;;5089062;28;20281;-35
2022/10/23 11:24:24;;;;;;;4.60;1.47;;;;;;;;;;5087645;28;20205;-34
2022/10/23 11:26:58;;;;;;;2.50;1.40;;;;;;;;;;5078810;28;20200;-33
2022/10/23 11:29:36;;;;;;;5.87;1.47;;;;;;;;;;5100541;28;20347;-34
2022/10/23 11:32:11;;;;;;;1.47;1.37;;;;;;;;;;5328274;22;20252;-34
2022/10/23 11:34:54;;;;;;;3.27;1.50;;;;;;;;;;5083739;28;20268;-33
2022/10/23 11:37:21;;;;;;;5.33;1.50;;;;;;;;;;5074135;28;20200;-34
2022/10/23 11:40:02;;;;;;;1.97;1.60;;;;;;;;;;5080979;28;20231;-34
2022/10/23 11:42:31;;;;;;;1.90;1.80;;;;;;;;;;5061958;28;20205;-31
2022/10/23 11:44:58;;;;;;;2.60;2.40;;;;;;;;;;5063802;28;20207;-35
2022/10/23 11:47:36;;;;;;;2.40;2.20;;;;;;;;;;5072476;28;20213;-36
2022/10/23 11:50:16;;;;;;;4.80;2.60;;;;;;;;;;5058644;28;20224;-35
2022/10/23 11:52:55;;;;;;;2.20;2.03;;;;;;;;;;5065238;28;20318;-33
2022/10/23 11:55:24;;;;;;;3.20;2.00;;;;;;;;;;5066758;28;20260;-36
2022/10/23 11:58:17;;;;;;;3.73;1.80;;;;;;;;;;5074710;28;20210;-36
2022/10/23 12:00:52;;;;;;;1.83;1.73;;;;;;;;;;5065362;28;20234;-36
2022/10/23 12:03:21;;;;;;;1.80;1.70;;;;;;;;;;5062328;28;20205;-32
2022/10/23 12:05:48;;;;;;;1.70;1.60;;;;;;;;;;5068521;28;20297;-30
2022/10/23 12:08:20;;;;;;;3.37;1.73;;;;;;;;;;5075542;28;20202;-33
2022/10/23 12:10:51;;;;;;;3.87;2.20;;;;;;;;;;5069003;28;20226;-30
2022/10/23 12:13:29;;;;;;;1.70;1.60;;;;;;;;;;5065191;28;20193;-34
2022/10/23 12:15:57;;;;;;;2.73;1.90;;;;;;;;;;5070277;28;20288;-35
2022/10/23 12:18:24;;;;;;;1.40;1.40;;;;;;;;;;5066576;28;20232;-32
2022/10/23 12:20:52;;;;;;;1.90;1.70;;;;;;;;;;5066698;28;20221;-35
2022/10/23 12:23:26;;;;;;;2.70;1.70;;;;;;;;;;5074873;28;20200;-34
2022/10/23 12:26:05;;;;;;;3.20;1.73;;;;;;;;;;5066277;28;20204;-34
2022/10/23 12:28:35;;;;;;;3.30;1.87;;;;;;;;;;5074395;28;20299;-35
2022/10/23 12:31:09;;;;;;;2.93;1.77;;;;;;;;;;5070602;28;20243;-34
2022/10/23 12:33:41;;;;;;;2.97;1.63;;;;;;;;;;5067494;28;20216;-33
2022/10/23 12:36:17;;;;;;;4.67;2.00;;;;;;;;;;5069813;28;20315;-34
2022/10/23 12:38:45;;;;;;;2.67;2.17;;;;;;;;;;5075940;28;20223;-31
2022/10/23 12:41:16;;;;;;;2.23;1.80;;;;;;;;;;5072075;28;20272;-32
2022/10/23 12:43:44;;;;;;;5.90;2.20;;;;;;;;;;5069942;28;20194;-35
2022/10/23 12:46:22;;;;;;;2.90;1.70;;;;;;;;;;5075064;28;20202;-34
2022/10/23 12:48:50;;;;;;;1.93;1.83;;;;;;;;;;5069792;28;20197;-33
2022/10/23 12:51:23;;;;;;;3.20;1.70;;;;;;;;;;5062639;28;20308;-34
2022/10/23 12:53:51;;;;;;;2.80;1.90;;;;;;;;;;5067766;28;20210;-36
2022/10/23 12:56:19;;;;;;;2.93;1.40;;;;;;;;;;5065804;28;20205;-32
2022/10/23 12:58:49;;;;;;;1.50;1.40;;;;;;;;;;5073776;28;20248;-35
2022/10/23 13:01:23;;;;;;;1.40;1.30;;;;;;;;;;5063155;28;20232;-34
2022/10/23 13:03:50;;;;;;;2.87;1.03;;;;;;;;;;5057590;28;20224;-38
2022/10/23 13:06:17;;;;;;;4.13;1.30;;;;;;;;;;5060363;28;20693;-33
2022/10/23 13:08:46;;;;;;;3.27;1.13;;;;;;;;;;5071297;28;20196;-35
2022/10/23 13:11:15;;;;;;;1.10;1.00;;;;;;;;;;5061033;28;20275;-32
2022/10/23 13:13:44;;;;;;;1.17;1.10;;;;;;;;;;5066282;28;20268;-34
2022/10/23 13:16:15;;;;;;;1.07;1.07;;;;;;;;;;5074210;28;20413;-31
2022/10/23 13:18:42;;;;;;;1.30;1.20;;;;;;;;;;5066006;28;20222;-30
2022/10/23 13:21:14;;;;;;;1.33;1.00;;;;;;;;;;5071942;28;20471;-33
2022/10/23 13:23:42;;;;;;;1.20;1.10;;;;;;;;;;5075079;28;20185;-34
2022/10/23 13:26:22;;;;;;;1.80;1.00;;;;;;;;;;5094683;28;20261;-33
2022/10/23 13:28:50;;;;;;;0.93;0.93;;;;;;;;;;5064816;28;20205;-31
2022/10/23 13:31:31;;;;;;;2.93;1.13;;;;;;;;;;5077057;28;20255;-31
2022/10/23 13:34:07;;;;;;;2.03;1.20;;;;;;;;;;5060950;28;20203;-34
2022/10/23 13:36:36;;;;;;;2.10;1.20;;;;;;;;;;5064771;28;20254;-33
2022/10/23 13:39:04;;;;;;;1.00;1.00;;;;;;;;;;5073603;28;20221;-33
2022/10/23 13:41:36;;;;;;;2.77;1.07;;;;;;;;;;5061991;28;20249;-32
2022/10/23 13:44:04;;;;;;;5.37;0.90;;;;;;;;;;5066273;28;20190;-35
2022/10/23 13:46:32;;;;;;;1.87;1.00;;;;;;;;;;5073654;28;20205;-34
2022/10/23 13:48:59;;;;;;;1.13;1.03;;;;;;;;;;5065702;28;20198;-35
2022/10/23 13:51:27;;;;;;;2.10;0.70;;;;;;;;;;5060479;28;20225;-34
2022/10/23 13:53:55;;;;;;;0.90;0.90;;;;;;;;;;5066298;28;20200;-31
2022/10/23 13:56:23;;;;;;;1.17;0.80;;;;;;;;;;5073069;28;20247;-34
2022/10/23 13:58:51;;;;;;;1.10;1.10;;;;;;;;;;5073308;28;20229;-31
2022/10/23 14:01:22;;;;;;;1.10;1.00;;;;;;;;;;5056065;28;20217;-37
2022/10/23 14:03:49;;;;;;;1.23;1.03;;;;;;;;;;5061257;28;20201;-32
2022/10/23 14:06:16;;;;;;;2.67;1.10;;;;;;;;;;5064353;28;20204;-34
2022/10/23 14:08:44;;;;;;;2.93;1.43;;;;;;;;;;5063269;28;20210;-32
2022/10/23 14:11:11;;;;;;;3.90;1.30;;;;;;;;;;5063295;28;20249;-36
2022/10/23 14:13:39;;;;;;;4.87;1.23;;;;;;;;;;5066791;28;20292;-35
2022/10/23 14:16:07;;;;;;;1.60;1.20;;;;;;;;;;5073017;28;20277;-35
2022/10/23 14:18:35;;;;;;;0.80;0.80;;;;;;;;;;5070877;28;20823;-31
2022/10/23 14:21:03;;;;;;;1.00;0.90;;;;;;;;;;5053662;28;20218;-35
2022/10/23 14:23:37;;;;;;;7.37;1.40;;;;;;;;;;5061706;28;20203;-33
2022/10/23 14:26:04;;;;;;;2.57;1.00;;;;;;;;;;5071824;28;20211;-34
2022/10/23 14:28:32;;;;;;;4.73;1.33;;;;;;;;;;5072305;28;20208;-32
2022/10/23 14:31:03;;;;;;;7.87;1.53;;;;;;;;;;5062511;28;20225;-36
2022/10/23 14:33:30;;;;;;;1.03;0.93;;;;;;;;;;5058335;28;20213;-37
2022/10/23 14:35:59;;;;;;;1.00;1.00;;;;;;;;;;5065287;28;20207;-35
2022/10/23 14:38:26;;;;;;;1.40;1.10;;;;;;;;;;5072515;28;20207;-34
2022/10/23 14:40:54;;;;;;;5.67;1.30;;;;;;;;;;5069934;28;20255;-34
2022/10/23 14:43:21;;;;;;;3.67;1.53;;;;;;;;;;5064116;28;20300;-35
2022/10/23 14:45:48;;;;;;;2.83;1.30;;;;;;;;;;5069707;28;20212;-32
2022/10/23 14:48:16;;;;;;;1.77;1.27;;;;;;;;;;5068387;28;20223;-35
2022/10/23 14:50:44;;;;;;;2.33;1.07;;;;;;;;;;5060784;28;20221;-35
2022/10/23 14:53:12;;;;;;;2.30;1.20;;;;;;;;;;5072643;28;20206;-37
2022/10/23 14:55:39;;;;;;;3.73;1.27;;;;;;;;;;5069036;28;20202;-33
2022/10/23 14:58:07;;;;;;;5.70;1.40;;;;;;;;;;5057437;28;20197;-32
2022/10/23 15:00:34;;;;;;;3.43;1.33;;;;;;;;;;5067373;28;20229;-31
2022/10/23 15:03:01;;;;;;;1.27;1.17;;;;;;;;;;5055190;28;20474;-36
2022/10/23 15:05:28;;;;;;;5.17;1.40;;;;;;;;;;5055763;28;20208;-30
2022/10/23 15:07:57;;;;;;;3.97;1.50;;;;;;;;;;5071941;28;20201;-34